Terminal Aerodrome Forecast
Issued by NWS

Home | Current Version | Previous Version | Text Only | Print | Product List | Glossary On
Versions: 1 2 3 4 5 6 7 8 9 10 11 12 13 14 15 16 17 18 19 20 21
000
FTUS41 KCAR 270534
TAFFVE
TAF
KFVE 270534Z 2706/2806 02007KT P6SM SCT080 OVC200
     FM271400 04012KT P6SM OVC040
     FM271530 04014G21KT 1 1/2SM -SN OVC015
     FM271630 04014G21KT 3/4SM -SN BLSN OVC008
     FM271800 04015G22KT 1/2SM SN BLSN OVC005
     FM272100 03015G22KT 3/4SM -SN BLSN OVC005=

USA.gov is the U.S. government's official web portal to all federal, state and local government web resources and services.